sensor_id;sensor_type;location;lat;lon;timestamp;P1;durP1;ratioP1;P2;durP2;ratioP2
42146;SDS011;27815;43.410;11.852;2024-03-07T00:01:29;9.05;;;4.50;;
42146;SDS011;27815;43.410;11.852;2024-03-07T00:05:34;9.63;;;4.07;;
42146;SDS011;27815;43.410;11.852;2024-03-07T00:09:37;10.63;;;3.88;;
42146;SDS011;27815;43.410;11.852;2024-03-07T00:13:40;6.10;;;3.53;;
42146;SDS011;27815;43.410;11.852;2024-03-07T00:17:45;4.20;;;2.20;;
42146;SDS011;27815;43.410;11.852;2024-03-07T00:21:48;2.63;;;1.67;;
42146;SDS011;27815;43.410;11.852;2024-03-07T00:25:51;5.22;;;2.13;;
42146;SDS011;27815;43.410;11.852;2024-03-07T00:29:54;3.13;;;2.08;;
42146;SDS011;27815;43.410;11.852;2024-03-07T00:33:57;5.38;;;2.25;;
42146;SDS011;27815;43.410;11.852;2024-03-07T00:38:14;5.65;;;2.53;;
42146;SDS011;27815;43.410;11.852;2024-03-07T00:42:17;10.15;;;5.75;;
42146;SDS011;27815;43.410;11.852;2024-03-07T00:46:20;3.55;;;2.22;;
42146;SDS011;27815;43.410;11.852;2024-03-07T00:50:24;7.30;;;3.17;;
42146;SDS011;27815;43.410;11.852;2024-03-07T00:54:28;8.80;;;4.03;;
42146;SDS011;27815;43.410;11.852;2024-03-07T00:58:32;7.68;;;4.30;;
42146;SDS011;27815;43.410;11.852;2024-03-07T01:02:35;11.13;;;5.70;;
42146;SDS011;27815;43.410;11.852;2024-03-07T01:06:38;7.70;;;3.97;;
42146;SDS011;27815;43.410;11.852;2024-03-07T01:10:43;10.13;;;6.45;;
42146;SDS011;27815;43.410;11.852;2024-03-07T01:14:46;6.13;;;2.90;;
42146;SDS011;27815;43.410;11.852;2024-03-07T01:18:49;3.38;;;1.90;;
42146;SDS011;27815;43.410;11.852;2024-03-07T01:22:52;4.65;;;2.53;;
42146;SDS011;27815;43.410;11.852;2024-03-07T01:26:55;5.30;;;2.10;;
42146;SDS011;27815;43.410;11.852;2024-03-07T01:30:58;5.57;;;3.58;;
42146;SDS011;27815;43.410;11.852;2024-03-07T01:35:01;6.40;;;3.00;;
42146;SDS011;27815;43.410;11.852;2024-03-07T01:39:04;3.35;;;1.77;;
42146;SDS011;27815;43.410;11.852;2024-03-07T01:43:07;8.80;;;4.78;;
42146;SDS011;27815;43.410;11.852;2024-03-07T01:47:11;12.38;;;6.55;;
42146;SDS011;27815;43.410;11.852;2024-03-07T01:51:14;14.80;;;7.13;;
42146;SDS011;27815;43.410;11.852;2024-03-07T01:55:18;13.45;;;7.25;;
42146;SDS011;27815;43.410;11.852;2024-03-07T01:59:21;14.15;;;7.43;;
42146;SDS011;27815;43.410;11.852;2024-03-07T02:03:24;23.88;;;10.68;;
42146;SDS011;27815;43.410;11.852;2024-03-07T02:07:28;12.88;;;7.25;;
42146;SDS011;27815;43.410;11.852;2024-03-07T02:11:31;4.93;;;3.10;;
42146;SDS011;27815;43.410;11.852;2024-03-07T02:15:34;9.88;;;5.63;;
42146;SDS011;27815;43.410;11.852;2024-03-07T02:19:37;4.97;;;2.67;;
42146;SDS011;27815;43.410;11.852;2024-03-07T02:23:40;10.98;;;5.93;;
42146;SDS011;27815;43.410;11.852;2024-03-07T02:27:43;5.18;;;2.50;;
42146;SDS011;27815;43.410;11.852;2024-03-07T02:31:47;7.20;;;3.97;;
42146;SDS011;27815;43.410;11.852;2024-03-07T02:35:50;6.82;;;3.10;;
42146;SDS011;27815;43.410;11.852;2024-03-07T02:39:53;8.73;;;4.40;;
42146;SDS011;27815;43.410;11.852;2024-03-07T02:43:57;6.20;;;3.65;;
42146;SDS011;27815;43.410;11.852;2024-03-07T02:48:00;7.43;;;3.60;;
42146;SDS011;27815;43.410;11.852;2024-03-07T02:52:03;5.07;;;2.60;;
42146;SDS011;27815;43.410;11.852;2024-03-07T02:56:09;5.68;;;2.75;;
42146;SDS011;27815;43.410;11.852;2024-03-07T03:00:14;8.82;;;4.43;;
42146;SDS011;27815;43.410;11.852;2024-03-07T03:04:23;7.32;;;3.28;;
42146;SDS011;27815;43.410;11.852;2024-03-07T03:08:26;7.80;;;4.22;;
42146;SDS011;27815;43.410;11.852;2024-03-07T03:12:30;4.60;;;2.50;;
42146;SDS011;27815;43.410;11.852;2024-03-07T03:16:33;3.90;;;2.10;;
42146;SDS011;27815;43.410;11.852;2024-03-07T03:20:49;4.30;;;2.28;;
42146;SDS011;27815;43.410;11.852;2024-03-07T03:24:53;4.68;;;2.70;;
42146;SDS011;27815;43.410;11.852;2024-03-07T03:28:58;5.30;;;2.75;;
42146;SDS011;27815;43.410;11.852;2024-03-07T03:33:01;3.20;;;2.10;;
42146;SDS011;27815;43.410;11.852;2024-03-07T03:37:04;4.95;;;2.92;;
42146;SDS011;27815;43.410;11.852;2024-03-07T03:41:07;9.40;;;4.10;;
42146;SDS011;27815;43.410;11.852;2024-03-07T03:45:10;8.90;;;4.70;;
42146;SDS011;27815;43.410;11.852;2024-03-07T03:49:17;5.93;;;3.15;;
42146;SDS011;27815;43.410;11.852;2024-03-07T03:53:20;6.55;;;4.32;;
42146;SDS011;27815;43.410;11.852;2024-03-07T03:57:24;8.02;;;3.95;;
42146;SDS011;27815;43.410;11.852;2024-03-07T04:01:27;7.35;;;4.53;;
42146;SDS011;27815;43.410;11.852;2024-03-07T04:05:30;7.45;;;3.95;;
42146;SDS011;27815;43.410;11.852;2024-03-07T04:09:33;11.55;;;6.30;;
42146;SDS011;27815;43.410;11.852;2024-03-07T04:13:36;8.10;;;4.68;;
42146;SDS011;27815;43.410;11.852;2024-03-07T04:17:39;9.93;;;5.88;;
42146;SDS011;27815;43.410;11.852;2024-03-07T04:21:42;9.45;;;4.97;;
42146;SDS011;27815;43.410;11.852;2024-03-07T04:25:46;10.23;;;4.93;;
42146;SDS011;27815;43.410;11.852;2024-03-07T04:29:50;4.75;;;3.22;;
42146;SDS011;27815;43.410;11.852;2024-03-07T04:33:53;4.93;;;3.00;;
42146;SDS011;27815;43.410;11.852;2024-03-07T04:37:56;6.85;;;3.15;;
42146;SDS011;27815;43.410;11.852;2024-03-07T04:42:03;8.95;;;5.63;;
42146;SDS011;27815;43.410;11.852;2024-03-07T04:46:11;57.40;;;10.30;;
42146;SDS011;27815;43.410;11.852;2024-03-07T04:50:14;103.80;;;13.13;;
42146;SDS011;27815;43.410;11.852;2024-03-07T04:54:22;95.93;;;12.60;;
42146;SDS011;27815;43.410;11.852;2024-03-07T04:58:25;125.53;;;14.05;;
42146;SDS011;27815;43.410;11.852;2024-03-07T05:02:28;75.20;;;12.82;;
42146;SDS011;27815;43.410;11.852;2024-03-07T05:06:31;30.33;;;10.52;;
42146;SDS011;27815;43.410;11.852;2024-03-07T05:10:37;18.63;;;9.13;;
42146;SDS011;27815;43.410;11.852;2024-03-07T05:14:41;14.13;;;9.27;;
42146;SDS011;27815;43.410;11.852;2024-03-07T05:18:44;15.77;;;9.85;;
42146;SDS011;27815;43.410;11.852;2024-03-07T05:22:47;20.75;;;12.20;;
42146;SDS011;27815;43.410;11.852;2024-03-07T05:26:53;27.45;;;10.65;;
42146;SDS011;27815;43.410;11.852;2024-03-07T05:30:56;51.97;;;12.52;;
42146;SDS011;27815;43.410;11.852;2024-03-07T05:34:59;38.10;;;11.73;;
42146;SDS011;27815;43.410;11.852;2024-03-07T05:39:03;41.58;;;11.77;;
42146;SDS011;27815;43.410;11.852;2024-03-07T05:43:12;30.83;;;10.30;;
42146;SDS011;27815;43.410;11.852;2024-03-07T05:47:16;38.10;;;8.45;;
42146;SDS011;27815;43.410;11.852;2024-03-07T05:51:19;40.10;;;8.18;;
42146;SDS011;27815;43.410;11.852;2024-03-07T05:55:22;41.85;;;8.23;;
42146;SDS011;27815;43.410;11.852;2024-03-07T05:59:26;30.55;;;7.55;;
42146;SDS011;27815;43.410;11.852;2024-03-07T06:03:34;39.55;;;8.38;;
42146;SDS011;27815;43.410;11.852;2024-03-07T06:07:38;88.75;;;12.82;;
42146;SDS011;27815;43.410;11.852;2024-03-07T06:11:41;35.10;;;10.65;;
42146;SDS011;27815;43.410;11.852;2024-03-07T06:15:45;18.48;;;8.20;;
42146;SDS011;27815;43.410;11.852;2024-03-07T06:19:49;40.83;;;10.80;;
42146;SDS011;27815;43.410;11.852;2024-03-07T06:23:52;36.15;;;9.20;;
42146;SDS011;27815;43.410;11.852;2024-03-07T06:28:05;61.05;;;11.77;;
42146;SDS011;27815;43.410;11.852;2024-03-07T06:32:12;43.95;;;12.52;;
42146;SDS011;27815;43.410;11.852;2024-03-07T06:36:15;37.83;;;12.73;;
42146;SDS011;27815;43.410;11.852;2024-03-07T06:40:18;40.13;;;12.77;;
42146;SDS011;27815;43.410;11.852;2024-03-07T06:44:24;45.05;;;12.18;;
42146;SDS011;27815;43.410;11.852;2024-03-07T06:48:29;72.85;;;13.30;;
42146;SDS011;27815;43.410;11.852;2024-03-07T06:52:32;28.02;;;10.52;;
42146;SDS011;27815;43.410;11.852;2024-03-07T06:56:34;16.52;;;8.80;;
42146;SDS011;27815;43.410;11.852;2024-03-07T07:00:38;36.50;;;13.35;;
42146;SDS011;27815;43.410;11.852;2024-03-07T07:04:42;32.33;;;11.85;;
42146;SDS011;27815;43.410;11.852;2024-03-07T07:08:51;50.20;;;15.18;;
42146;SDS011;27815;43.410;11.852;2024-03-07T07:12:54;37.45;;;12.35;;
42146;SDS011;27815;43.410;11.852;2024-03-07T07:16:57;34.08;;;12.32;;
42146;SDS011;27815;43.410;11.852;2024-03-07T07:21:03;31.23;;;11.50;;
42146;SDS011;27815;43.410;11.852;2024-03-07T07:25:09;26.00;;;11.55;;
42146;SDS011;27815;43.410;11.852;2024-03-07T07:29:18;18.80;;;9.90;;
42146;SDS011;27815;43.410;11.852;2024-03-07T07:33:22;18.42;;;9.82;;
42146;SDS011;27815;43.410;11.852;2024-03-07T07:37:25;18.42;;;9.52;;
42146;SDS011;27815;43.410;11.852;2024-03-07T07:41:28;16.92;;;10.15;;
42146;SDS011;27815;43.410;11.852;2024-03-07T07:45:31;19.75;;;9.88;;
42146;SDS011;27815;43.410;11.852;2024-03-07T07:49:35;21.58;;;9.50;;
42146;SDS011;27815;43.410;11.852;2024-03-07T07:53:38;23.75;;;11.73;;
42146;SDS011;27815;43.410;11.852;2024-03-07T07:57:41;20.05;;;10.27;;
42146;SDS011;27815;43.410;11.852;2024-03-07T08:01:49;21.08;;;12.35;;
42146;SDS011;27815;43.410;11.852;2024-03-07T08:05:52;18.15;;;12.02;;
42146;SDS011;27815;43.410;11.852;2024-03-07T08:09:57;18.77;;;11.85;;
42146;SDS011;27815;43.410;11.852;2024-03-07T08:13:59;23.65;;;13.25;;
42146;SDS011;27815;43.410;11.852;2024-03-07T08:18:03;25.95;;;17.42;;
42146;SDS011;27815;43.410;11.852;2024-03-07T08:22:12;47.63;;;28.90;;
42146;SDS011;27815;43.410;11.852;2024-03-07T08:26:17;37.08;;;23.58;;
42146;SDS011;27815;43.410;11.852;2024-03-07T08:30:20;54.63;;;28.25;;
42146;SDS011;27815;43.410;11.852;2024-03-07T08:34:23;53.00;;;27.33;;
42146;SDS011;27815;43.410;11.852;2024-03-07T08:38:26;52.13;;;27.90;;
42146;SDS011;27815;43.410;11.852;2024-03-07T08:42:29;33.40;;;20.15;;
42146;SDS011;27815;43.410;11.852;2024-03-07T08:46:34;26.52;;;16.20;;
42146;SDS011;27815;43.410;11.852;2024-03-07T08:50:37;25.42;;;16.65;;
42146;SDS011;27815;43.410;11.852;2024-03-07T08:54:41;24.83;;;14.52;;
42146;SDS011;27815;43.410;11.852;2024-03-07T08:58:46;23.80;;;13.82;;
42146;SDS011;27815;43.410;11.852;2024-03-07T09:02:50;26.20;;;15.23;;
42146;SDS011;27815;43.410;11.852;2024-03-07T09:06:57;23.95;;;14.10;;
42146;SDS011;27815;43.410;11.852;2024-03-07T09:11:01;24.92;;;14.52;;
42146;SDS011;27815;43.410;11.852;2024-03-07T09:15:04;21.95;;;13.85;;
42146;SDS011;27815;43.410;11.852;2024-03-07T09:19:07;27.42;;;16.02;;
42146;SDS011;27815;43.410;11.852;2024-03-07T09:23:11;24.25;;;13.45;;
42146;SDS011;27815;43.410;11.852;2024-03-07T09:27:15;21.63;;;14.15;;
42146;SDS011;27815;43.410;11.852;2024-03-07T09:35:24;24.00;;;14.65;;
42146;SDS011;27815;43.410;11.852;2024-03-07T09:39:27;32.08;;;18.15;;
42146;SDS011;27815;43.410;11.852;2024-03-07T09:43:33;32.30;;;17.27;;
42146;SDS011;27815;43.410;11.852;2024-03-07T09:47:36;28.48;;;17.73;;
42146;SDS011;27815;43.410;11.852;2024-03-07T09:51:40;29.20;;;18.85;;
42146;SDS011;27815;43.410;11.852;2024-03-07T09:55:45;27.77;;;17.75;;
42146;SDS011;27815;43.410;11.852;2024-03-07T09:59:48;30.13;;;18.42;;
42146;SDS011;27815;43.410;11.852;2024-03-07T10:03:58;27.27;;;16.92;;
42146;SDS011;27815;43.410;11.852;2024-03-07T10:08:13;25.67;;;14.98;;
42146;SDS011;27815;43.410;11.852;2024-03-07T10:12:16;30.40;;;18.38;;
42146;SDS011;27815;43.410;11.852;2024-03-07T10:16:20;38.05;;;25.35;;
42146;SDS011;27815;43.410;11.852;2024-03-07T10:20:25;34.85;;;22.90;;
42146;SDS011;27815;43.410;11.852;2024-03-07T10:24:29;36.95;;;25.23;;
42146;SDS011;27815;43.410;11.852;2024-03-07T10:28:35;37.80;;;24.97;;
42146;SDS011;27815;43.410;11.852;2024-03-07T10:32:40;18.98;;;12.52;;
42146;SDS011;27815;43.410;11.852;2024-03-07T10:36:44;17.33;;;12.00;;
42146;SDS011;27815;43.410;11.852;2024-03-07T10:40:47;22.55;;;13.70;;
42146;SDS011;27815;43.410;11.852;2024-03-07T10:45:00;19.42;;;12.77;;
42146;SDS011;27815;43.410;11.852;2024-03-07T10:49:07;20.60;;;14.15;;
42146;SDS011;27815;43.410;11.852;2024-03-07T10:57:48;29.80;;;18.33;;
42146;SDS011;27815;43.410;11.852;2024-03-07T11:01:59;30.27;;;18.52;;
42146;SDS011;27815;43.410;11.852;2024-03-07T11:06:18;24.98;;;16.08;;
42146;SDS011;27815;43.410;11.852;2024-03-07T11:10:22;25.65;;;15.75;;
42146;SDS011;27815;43.410;11.852;2024-03-07T11:14:25;23.23;;;14.48;;
42146;SDS011;27815;43.410;11.852;2024-03-07T11:18:29;19.73;;;12.27;;
42146;SDS011;27815;43.410;11.852;2024-03-07T11:22:32;14.40;;;9.15;;
42146;SDS011;27815;43.410;11.852;2024-03-07T11:26:36;17.35;;;10.98;;
42146;SDS011;27815;43.410;11.852;2024-03-07T11:30:40;18.17;;;10.55;;
42146;SDS011;27815;43.410;11.852;2024-03-07T11:34:44;16.25;;;11.18;;
42146;SDS011;27815;43.410;11.852;2024-03-07T11:38:50;19.60;;;12.77;;
42146;SDS011;27815;43.410;11.852;2024-03-07T11:42:54;20.42;;;12.55;;
42146;SDS011;27815;43.410;11.852;2024-03-07T11:47:07;18.77;;;12.50;;
42146;SDS011;27815;43.410;11.852;2024-03-07T11:51:13;22.48;;;14.32;;
42146;SDS011;27815;43.410;11.852;2024-03-07T11:55:23;20.10;;;13.63;;
42146;SDS011;27815;43.410;11.852;2024-03-07T11:59:26;18.90;;;13.73;;
42146;SDS011;27815;43.410;11.852;2024-03-07T12:03:34;16.63;;;10.02;;
42146;SDS011;27815;43.410;11.852;2024-03-07T12:07:37;14.07;;;9.88;;
42146;SDS011;27815;43.410;11.852;2024-03-07T12:11:40;14.70;;;10.35;;
42146;SDS011;27815;43.410;11.852;2024-03-07T12:15:45;14.45;;;10.10;;
42146;SDS011;27815;43.410;11.852;2024-03-07T12:19:48;19.05;;;11.55;;
42146;SDS011;27815;43.410;11.852;2024-03-07T12:32:12;10.38;;;7.22;;
42146;SDS011;27815;43.410;11.852;2024-03-07T12:36:17;10.88;;;7.15;;
42146;SDS011;27815;43.410;11.852;2024-03-07T12:40:21;11.18;;;6.88;;
42146;SDS011;27815;43.410;11.852;2024-03-07T12:44:25;9.68;;;6.65;;
42146;SDS011;27815;43.410;11.852;2024-03-07T12:48:30;10.88;;;6.80;;
42146;SDS011;27815;43.410;11.852;2024-03-07T12:52:34;10.73;;;6.65;;
42146;SDS011;27815;43.410;11.852;2024-03-07T12:56:37;10.82;;;6.15;;
42146;SDS011;27815;43.410;11.852;2024-03-07T13:00:39;9.45;;;6.25;;
42146;SDS011;27815;43.410;11.852;2024-03-07T13:04:43;11.65;;;6.15;;
42146;SDS011;27815;43.410;11.852;2024-03-07T13:08:47;9.98;;;5.80;;
42146;SDS011;27815;43.410;11.852;2024-03-07T13:12:50;11.07;;;6.03;;
42146;SDS011;27815;43.410;11.852;2024-03-07T13:16:54;11.18;;;6.07;;
42146;SDS011;27815;43.410;11.852;2024-03-07T13:20:56;10.10;;;6.05;;
42146;SDS011;27815;43.410;11.852;2024-03-07T13:24:59;12.13;;;6.53;;
42146;SDS011;27815;43.410;11.852;2024-03-07T13:29:05;9.95;;;5.18;;
42146;SDS011;27815;43.410;11.852;2024-03-07T13:33:08;9.82;;;6.25;;
42146;SDS011;27815;43.410;11.852;2024-03-07T13:37:13;10.68;;;6.38;;
42146;SDS011;27815;43.410;11.852;2024-03-07T13:41:21;10.85;;;6.30;;
42146;SDS011;27815;43.410;11.852;2024-03-07T13:45:27;16.52;;;9.93;;
42146;SDS011;27815;43.410;11.852;2024-03-07T13:49:39;16.23;;;10.10;;
42146;SDS011;27815;43.410;11.852;2024-03-07T13:53:44;19.35;;;12.43;;
42146;SDS011;27815;43.410;11.852;2024-03-07T13:57:53;22.60;;;14.05;;
42146;SDS011;27815;43.410;11.852;2024-03-07T14:02:17;17.27;;;11.00;;
42146;SDS011;27815;43.410;11.852;2024-03-07T14:15:52;8.20;;;4.53;;
42146;SDS011;27815;43.410;11.852;2024-03-07T14:33:18;9.13;;;5.20;;
42146;SDS011;27815;43.410;11.852;2024-03-07T14:42:07;11.02;;;6.20;;
42146;SDS011;27815;43.410;11.852;2024-03-07T14:46:14;9.60;;;5.17;;
42146;SDS011;27815;43.410;11.852;2024-03-07T14:50:19;8.02;;;4.05;;
42146;SDS011;27815;43.410;11.852;2024-03-07T14:54:23;8.45;;;4.32;;
42146;SDS011;27815;43.410;11.852;2024-03-07T14:58:26;9.45;;;5.43;;
42146;SDS011;27815;43.410;11.852;2024-03-07T15:02:29;9.40;;;5.28;;
42146;SDS011;27815;43.410;11.852;2024-03-07T15:06:35;8.63;;;4.95;;
42146;SDS011;27815;43.410;11.852;2024-03-07T15:10:40;8.27;;;4.97;;
42146;SDS011;27815;43.410;11.852;2024-03-07T15:14:48;15.35;;;8.32;;
42146;SDS011;27815;43.410;11.852;2024-03-07T15:19:09;13.50;;;7.97;;
42146;SDS011;27815;43.410;11.852;2024-03-07T15:23:12;10.15;;;6.63;;
42146;SDS011;27815;43.410;11.852;2024-03-07T15:27:15;10.85;;;5.53;;
42146;SDS011;27815;43.410;11.852;2024-03-07T15:31:19;18.90;;;12.00;;
42146;SDS011;27815;43.410;11.852;2024-03-07T15:35:22;16.00;;;10.35;;
42146;SDS011;27815;43.410;11.852;2024-03-07T15:39:27;17.10;;;10.27;;
42146;SDS011;27815;43.410;11.852;2024-03-07T15:47:35;24.38;;;16.58;;
42146;SDS011;27815;43.410;11.852;2024-03-07T15:51:38;46.50;;;28.05;;
42146;SDS011;27815;43.410;11.852;2024-03-07T15:55:41;45.30;;;24.40;;
42146;SDS011;27815;43.410;11.852;2024-03-07T15:59:45;24.65;;;15.25;;
42146;SDS011;27815;43.410;11.852;2024-03-07T16:03:48;29.10;;;16.27;;
42146;SDS011;27815;43.410;11.852;2024-03-07T16:07:52;27.90;;;16.98;;
42146;SDS011;27815;43.410;11.852;2024-03-07T16:11:55;31.15;;;17.25;;
42146;SDS011;27815;43.410;11.852;2024-03-07T16:15:58;29.27;;;17.50;;
42146;SDS011;27815;43.410;11.852;2024-03-07T16:20:02;39.83;;;25.70;;
42146;SDS011;27815;43.410;11.852;2024-03-07T16:24:14;32.97;;;21.27;;
42146;SDS011;27815;43.410;11.852;2024-03-07T16:28:17;27.95;;;16.67;;
42146;SDS011;27815;43.410;11.852;2024-03-07T16:32:24;22.55;;;14.02;;
42146;SDS011;27815;43.410;11.852;2024-03-07T16:36:27;24.92;;;14.68;;
42146;SDS011;27815;43.410;11.852;2024-03-07T16:40:30;26.48;;;16.13;;
42146;SDS011;27815;43.410;11.852;2024-03-07T16:44:35;19.48;;;12.30;;
42146;SDS011;27815;43.410;11.852;2024-03-07T16:48:41;15.40;;;9.32;;
42146;SDS011;27815;43.410;11.852;2024-03-07T16:52:45;12.75;;;8.48;;
42146;SDS011;27815;43.410;11.852;2024-03-07T16:56:54;11.80;;;7.80;;
42146;SDS011;27815;43.410;11.852;2024-03-07T17:00:57;12.13;;;7.60;;
42146;SDS011;27815;43.410;11.852;2024-03-07T17:05:01;15.38;;;8.18;;
42146;SDS011;27815;43.410;11.852;2024-03-07T17:09:06;15.50;;;8.43;;
42146;SDS011;27815;43.410;11.852;2024-03-07T17:13:13;11.27;;;7.03;;
42146;SDS011;27815;43.410;11.852;2024-03-07T17:17:17;12.00;;;7.15;;
42146;SDS011;27815;43.410;11.852;2024-03-07T17:21:20;12.18;;;7.00;;
42146;SDS011;27815;43.410;11.852;2024-03-07T17:25:26;13.05;;;7.75;;
42146;SDS011;27815;43.410;11.852;2024-03-07T17:29:32;13.38;;;7.88;;
42146;SDS011;27815;43.410;11.852;2024-03-07T17:33:35;15.13;;;8.40;;
42146;SDS011;27815;43.410;11.852;2024-03-07T17:37:42;16.75;;;7.45;;
42146;SDS011;27815;43.410;11.852;2024-03-07T17:41:48;11.77;;;6.38;;
42146;SDS011;27815;43.410;11.852;2024-03-07T17:50:02;11.40;;;5.25;;
42146;SDS011;27815;43.410;11.852;2024-03-07T17:54:14;9.43;;;5.15;;
42146;SDS011;27815;43.410;11.852;2024-03-07T17:58:20;9.68;;;4.50;;
42146;SDS011;27815;43.410;11.852;2024-03-07T18:02:25;9.40;;;4.88;;
42146;SDS011;27815;43.410;11.852;2024-03-07T18:06:29;8.55;;;4.80;;
42146;SDS011;27815;43.410;11.852;2024-03-07T18:10:35;11.02;;;4.85;;
42146;SDS011;27815;43.410;11.852;2024-03-07T18:14:41;8.77;;;4.47;;
42146;SDS011;27815;43.410;11.852;2024-03-07T18:18:45;7.68;;;4.55;;
42146;SDS011;27815;43.410;11.852;2024-03-07T18:22:57;9.15;;;5.10;;
42146;SDS011;27815;43.410;11.852;2024-03-07T18:27:04;8.95;;;5.00;;
42146;SDS011;27815;43.410;11.852;2024-03-07T18:31:15;10.77;;;5.57;;
42146;SDS011;27815;43.410;11.852;2024-03-07T18:35:25;8.73;;;5.40;;
42146;SDS011;27815;43.410;11.852;2024-03-07T18:39:33;11.73;;;7.07;;
42146;SDS011;27815;43.410;11.852;2024-03-07T18:43:39;9.75;;;5.93;;
42146;SDS011;27815;43.410;11.852;2024-03-07T18:47:44;14.65;;;9.48;;
42146;SDS011;27815;43.410;11.852;2024-03-07T18:51:54;15.00;;;9.48;;
42146;SDS011;27815;43.410;11.852;2024-03-07T18:55:57;16.38;;;7.10;;
42146;SDS011;27815;43.410;11.852;2024-03-07T19:00:02;14.52;;;7.80;;
42146;SDS011;27815;43.410;11.852;2024-03-07T19:04:09;14.10;;;7.40;;
42146;SDS011;27815;43.410;11.852;2024-03-07T19:08:17;12.95;;;6.80;;
42146;SDS011;27815;43.410;11.852;2024-03-07T19:12:26;10.43;;;5.57;;
42146;SDS011;27815;43.410;11.852;2024-03-07T19:16:30;8.98;;;5.15;;
42146;SDS011;27815;43.410;11.852;2024-03-07T19:20:33;11.60;;;5.32;;
42146;SDS011;27815;43.410;11.852;2024-03-07T19:24:43;9.25;;;6.05;;
42146;SDS011;27815;43.410;11.852;2024-03-07T19:28:48;7.40;;;4.82;;
42146;SDS011;27815;43.410;11.852;2024-03-07T19:32:53;9.30;;;5.43;;
42146;SDS011;27815;43.410;11.852;2024-03-07T19:36:58;6.95;;;4.25;;
42146;SDS011;27815;43.410;11.852;2024-03-07T19:41:01;9.43;;;5.32;;
42146;SDS011;27815;43.410;11.852;2024-03-07T19:45:07;7.63;;;4.85;;
42146;SDS011;27815;43.410;11.852;2024-03-07T19:49:10;7.35;;;4.70;;
42146;SDS011;27815;43.410;11.852;2024-03-07T19:53:12;9.32;;;5.32;;
42146;SDS011;27815;43.410;11.852;2024-03-07T19:57:17;10.65;;;5.60;;
42146;SDS011;27815;43.410;11.852;2024-03-07T20:01:23;9.40;;;5.65;;
42146;SDS011;27815;43.410;11.852;2024-03-07T20:05:26;8.55;;;5.05;;
42146;SDS011;27815;43.410;11.852;2024-03-07T20:09:32;9.82;;;5.60;;
42146;SDS011;27815;43.410;11.852;2024-03-07T20:13:38;10.15;;;5.78;;
42146;SDS011;27815;43.410;11.852;2024-03-07T20:17:43;11.73;;;5.90;;
42146;SDS011;27815;43.410;11.852;2024-03-07T20:21:46;8.77;;;5.47;;
42146;SDS011;27815;43.410;11.852;2024-03-07T20:25:56;9.90;;;5.97;;
42146;SDS011;27815;43.410;11.852;2024-03-07T20:30:02;10.27;;;5.85;;
42146;SDS011;27815;43.410;11.852;2024-03-07T20:34:06;11.02;;;5.95;;
42146;SDS011;27815;43.410;11.852;2024-03-07T20:38:09;10.07;;;6.20;;
42146;SDS011;27815;43.410;11.852;2024-03-07T20:42:19;11.73;;;6.38;;
42146;SDS011;27815;43.410;11.852;2024-03-07T20:46:28;10.57;;;5.65;;
42146;SDS011;27815;43.410;11.852;2024-03-07T20:50:31;11.32;;;6.55;;
42146;SDS011;27815;43.410;11.852;2024-03-07T20:54:43;14.75;;;9.30;;
42146;SDS011;27815;43.410;11.852;2024-03-07T20:58:50;17.15;;;9.55;;
42146;SDS011;27815;43.410;11.852;2024-03-07T21:02:56;14.52;;;8.55;;
42146;SDS011;27815;43.410;11.852;2024-03-07T21:07:03;10.95;;;6.50;;
42146;SDS011;27815;43.410;11.852;2024-03-07T21:11:13;11.82;;;6.22;;
42146;SDS011;27815;43.410;11.852;2024-03-07T21:15:19;11.57;;;6.57;;
42146;SDS011;27815;43.410;11.852;2024-03-07T21:19:24;10.07;;;5.63;;
42146;SDS011;27815;43.410;11.852;2024-03-07T21:23:33;9.02;;;5.55;;
42146;SDS011;27815;43.410;11.852;2024-03-07T21:27:44;10.60;;;6.45;;
42146;SDS011;27815;43.410;11.852;2024-03-07T21:31:48;11.18;;;6.65;;
42146;SDS011;27815;43.410;11.852;2024-03-07T21:35:53;15.20;;;9.98;;
42146;SDS011;27815;43.410;11.852;2024-03-07T21:40:01;11.32;;;7.47;;
42146;SDS011;27815;43.410;11.852;2024-03-07T21:44:05;16.98;;;10.23;;
42146;SDS011;27815;43.410;11.852;2024-03-07T21:48:13;11.02;;;6.90;;
42146;SDS011;27815;43.410;11.852;2024-03-07T21:52:16;11.48;;;6.20;;
42146;SDS011;27815;43.410;11.852;2024-03-07T21:56:27;10.10;;;6.30;;
42146;SDS011;27815;43.410;11.852;2024-03-07T22:00:35;12.50;;;6.00;;
42146;SDS011;27815;43.410;11.852;2024-03-07T22:04:39;11.35;;;6.65;;
42146;SDS011;27815;43.410;11.852;2024-03-07T22:08:46;9.90;;;5.55;;
42146;SDS011;27815;43.410;11.852;2024-03-07T22:12:49;10.85;;;6.78;;
42146;SDS011;27815;43.410;11.852;2024-03-07T22:16:55;13.90;;;7.57;;
42146;SDS011;27815;43.410;11.852;2024-03-07T22:20:58;15.35;;;9.50;;
42146;SDS011;27815;43.410;11.852;2024-03-07T22:25:02;15.43;;;9.88;;
42146;SDS011;27815;43.410;11.852;2024-03-07T22:29:07;15.07;;;9.90;;
42146;SDS011;27815;43.410;11.852;2024-03-07T22:33:10;18.10;;;10.13;;
42146;SDS011;27815;43.410;11.852;2024-03-07T22:37:14;16.48;;;9.52;;
42146;SDS011;27815;43.410;11.852;2024-03-07T22:41:18;11.90;;;7.40;;
42146;SDS011;27815;43.410;11.852;2024-03-07T22:45:21;13.27;;;7.30;;
42146;SDS011;27815;43.410;11.852;2024-03-07T22:49:25;13.40;;;8.20;;
42146;SDS011;27815;43.410;11.852;2024-03-07T22:53:28;17.63;;;8.52;;
42146;SDS011;27815;43.410;11.852;2024-03-07T22:57:31;13.23;;;8.18;;
42146;SDS011;27815;43.410;11.852;2024-03-07T23:01:36;12.40;;;7.15;;
42146;SDS011;27815;43.410;11.852;2024-03-07T23:05:39;11.68;;;7.05;;
42146;SDS011;27815;43.410;11.852;2024-03-07T23:09:43;21.58;;;13.10;;
42146;SDS011;27815;43.410;11.852;2024-03-07T23:13:45;27.08;;;15.30;;
42146;SDS011;27815;43.410;11.852;2024-03-07T23:17:50;19.35;;;10.13;;
42146;SDS011;27815;43.410;11.852;2024-03-07T23:21:53;14.35;;;8.52;;
42146;SDS011;27815;43.410;11.852;2024-03-07T23:25:59;23.48;;;10.10;;
42146;SDS011;27815;43.410;11.852;2024-03-07T23:30:02;16.10;;;9.45;;
42146;SDS011;27815;43.410;11.852;2024-03-07T23:34:08;21.77;;;11.93;;
42146;SDS011;27815;43.410;11.852;2024-03-07T23:38:14;29.35;;;13.43;;
42146;SDS011;27815;43.410;11.852;2024-03-07T23:42:18;19.15;;;11.23;;
42146;SDS011;27815;43.410;11.852;2024-03-07T23:46:21;20.38;;;12.43;;
42146;SDS011;27815;43.410;11.852;2024-03-07T23:50:24;20.85;;;11.30;;
42146;SDS011;27815;43.410;11.852;2024-03-07T23:54:29;15.18;;;9.27;;
42146;SDS011;27815;43.410;11.852;2024-03-07T23:58:32;19.20;;;11.15;;
